Pilot Magazine UKGA

About You

Log In Register UKGA membership

Flight planning

Flight planning New flightplan NOTAM map LARS map & NOTAMs Danger area, mil. & TRA activations Weather map GPS route download Find waypoints Your waypoints New waypoint

Forums

Forums Currently discussing "GP LAPL medical via CAA/Cellma"

Other items

Articles Events Links News Surveys Tips Other users Feedback UKGA membership About UKGA

TAFs

UK

TAF AMD EGAA 222255Z 2222/2318 24007KT 9999 FEW020 BKN045 
      BECMG 2222/2224 BKN009 
      TEMPO 2222/2318 7000 -RADZ RA 
      TEMPO 2302/2309 SCT002 BKN004 PROB30 
      TEMPO 2304/2310 3000 DZ BR BKN001 
      BECMG 2310/2312 SCT008 BKN010 
      TEMPO 2312/2318 SCT012 BKN016
      
TAF EGAC 221657Z 2218/2221 03010KT 9999 FEW025 SCT045 
      BECMG 2218/2221 24005KT
      
TAF EGAE 221657Z 2218/2220 23009KT 9999 FEW020 BKN045 PROB30 
      TEMPO 2218/2220 8000 RA
      
TAF EGBB 221654Z 2218/2318 04010KT 9999 FEW045 
      BECMG 2218/2221 VRB04KT PROB30 
      TEMPO 2303/2306 8000
      
TAF EGBJ 221358Z 2215/2219 03010KT 9999 FEW040
      
TAF EGCC 221703Z 2218/2324 31010KT 9999 FEW030 
      BECMG 2221/2224 VRB03KT PROB30 
      TEMPO 2300/2307 8000 
      BECMG 2309/2312 30010KT PROB30 
      TEMPO 2312/2324 8000 -RA BKN014
      
TAF EGCK 221956Z 2221/2306 VRB03KT 9999 SCT040 
      TEMPO 2305/2306 7000 -RA BKN014
      
TAF EGCN 221703Z 2218/2318 04010KT 9999 FEW045 
      BECMG 2218/2221 VRB03KT 
      BECMG 2306/2309 31010KT
      
TAF EGDM 221352Z 2215/2218 03014KT 9999 SCT035
      
TAF EGDR 221633Z 2218/2303 36012KT 9999 FEW030 
      TEMPO 2218/2221 36015G25KT
      
TAF EGDY 221821Z 2218/2303 04005KT CAVOK 
      BECMG 2224/2303 VRB03KT
      
TAF EGEC 221359Z 2215/2217 28009KT 9999 FEW020
      
TAF EGEO 221359Z 2215/2217 23012KT 9999 FEW030
      
TAF EGFF 221702Z 2218/2318 04006KT 9999 FEW045 
      BECMG 2312/2315 27010KT
      
TAF EGGD 221702Z 2218/2318 03006KT 9999 FEW045 
      BECMG 2312/2315 28010KT
      
TAF EGGP 221703Z 2218/2318 31006KT 9999 FEW035 PROB30 
      TEMPO 2312/2318 8000 -RA BKN014
      
TAF EGGW 221702Z 2218/2318 02009KT 9999 FEW040
      
TAF EGHC 221356Z 2215/2218 01015KT 9999 FEW045
      
TAF EGHE 221356Z 2215/2218 01014KT 9999 FEW025
      
TAF EGHH 221656Z 2218/2221 04009KT 9999 FEW040
      
TAF EGHI 221656Z 2218/2222 02010KT 9999 FEW040
      
TAF EGHQ 221954Z 2221/2306 35005KT 9999 FEW045= TAF EGLF 221957Z 2221/2223 01006KT 9999 FEW040
      
TAF EGJA 221732Z 2217/2300 CNL= TAF EPLB 221730Z 2218/2303 15008KT CAVOK PROB40 
      TEMPO 2218/2222 SCT050CB
      
TAF EGJB 222000Z 2221/2306 36006KT 9999 FEW020 SCT040
      
TAF EGJJ 222000Z 2221/2306 04006KT 9999 FEW020 SCT040
      
TAF EGKA 221355Z 2215/2219 03011KT 9999 SCT035
      
TAF EGKB 221655Z 2218/2222 03009KT 9999 SCT035
      
TAF EGKK 221653Z 2218/2324 03011KT 9999 FEW045 
      BECMG 2317/2320 18007KT
      
TAF EGLC 221655Z 2218/2221 04009KT 9999 SCT045
      
TAF EGLF 221957Z 2221/2223 01006KT 9999 FEW040
      
TAF AMD EGLL 222130Z 2221/2324 03005KT 9999 FEW048= TAF 
      TAF AMD EPWR 222129Z 2221/2321 32007KT 9999 BKN023 
      TEMPO 2221/2307 3000 BR BKN008 BKN013 
      TEMPO 2307/2321 BKN025CB
      
TAF EGMC 221957Z 2221/2306 01005KT 9999 SCT045
      
TAF EGMD 221957Z 2221/2306 02010KT 9999 SCT030
      
TAF EGNH 221703Z 2218/2220 31009KT 9999 FEW030
      
TAF EGNJ 221956Z 2221/2306 VRB03KT 9999 FEW040
      
TAF EGNM 221703Z 2218/2318 29004KT 9999 FEW045
      
TAF EGNO 221355Z 2215/2218 30009KT 9999 SCT040
      
TAF EGNR 221703Z 2218/2220 32009KT 9999 FEW040
      
TAF EGNS 221700Z 2218/2221 28007KT 9999 FEW030
      
TAF AMD EGNT 222002Z 2220/2318 VRB04KT 9999 FEW045
      
TAF EGNV 221956Z 2221/2301 VRB03KT 9999 FEW040
      
TAF EGNX 221654Z 2218/2318 05005KT 9999 FEW045
      
TAF EGOS 221610Z 2215/2218 CNL
      
TAF EGOV 221326Z 2215/2219 32010KT 9999 FEW030
      
TAF EGOW 221355Z 2215/2218 30010KT 9999 FEW040
      
TAF EGPA 221954Z 2221/2306 17009KT 9999 SCT035 PROB40 
      TEMPO 2222/2303 7000 -RA BKN012 
      BECMG 2303/2306 24010KT 
      TEMPO 2303/2306 7000 -RA BKN010 PROB30 
      TEMPO 2303/2306 3000 DZRA BR BKN004
      
TAF EGPB 221954Z 2221/2306 21012KT 9999 FEW025 PROB40 
      TEMPO 2223/2303 7000 -RA BKN014 
      BECMG 2300/2303 BKN010 
      TEMPO 2303/2306 7000 -RA BKN008 PROB30 
      TEMPO 2303/2306 3000 DZRA BR BKN004
      
TAF EGPC 221954Z 2221/2306 15007KT 9999 SCT030 
      BECMG 2221/2224 21010KT PROB30 
      TEMPO 2300/2303 7000 -RA BKN014 
      TEMPO 2303/2306 7000 -RA BKN012 PROB30 
      TEMPO 2303/2306 4000 RA BKN008
      
TAF EGPD 221655Z 2218/2318 15010KT 9999 SCT040 
      BECMG 2221/2224 23005KT 
      BECMG 2312/2315 12010KT PROB30 
      TEMPO 2312/2318 7000 -RA BKN014
      
TAF EGPE 221954Z 2221/2306 24009KT 9999 FEW030 PROB30 
      TEMPO 2221/2306 7000 -RA
      
TAF EGPF 221655Z 2218/2318 28009KT 9999 SCT040 
      BECMG 2223/2302 22010KT BKN010 
      TEMPO 2223/2318 7000 -RA BKN008 PROB30 
      TEMPO 2300/2318 4000 RADZ BKN004
      
TAF EGPH 221655Z 2218/2318 25009KT 9999 FEW035 
      TEMPO 2302/2318 7000 -RA BKN012 PROB30 
      TEMPO 2303/2314 4000 RADZ BKN008
      
TAF EGPI 221359Z 2215/2218 26009KT 9999 FEW020 PROB30 
      TEMPO 2216/2218 7000 -RA
      
TAF EGPK 221655Z 2218/2318 28009KT 9999 FEW040 
      BECMG 2223/2302 22010KT BKN010 
      TEMPO 2223/2318 7000 -RA BKN008 PROB40 
      TEMPO 2300/2318 4000 RADZ BKN004
      
TAF EGPL 221356Z 2215/2217 20015KT 9999 SCT020 
      TEMPO 2215/2217 21018G28KT 7000 -RA BKN010 PROB40 
      TEMPO 2215/2217 2500 DZRA BR BKN005
      
TAF EGPN 221657Z 2218/2221 24009KT 9999 FEW035
      
TAF EGPO 221954Z 2221/2306 20015KT 9999 SCT007 BKN012 
      TEMPO 2221/2306 7000 -RA BKN007 PROB30 
      TEMPO 2221/2306 3000 DZRA BR BKN004
      
TAF EGPU 221359Z 2215/2218 23014KT 9999 SCT025 
      TEMPO 2215/2218 7000 -RA PROB30 
      TEMPO 2215/2218 4000 RADZ BKN008
      
TAF EGQL 221915Z 2221/2306 26010KT 9999 SCT048 PROB40 
      TEMPO 2302/2306 6000 RA BKN018 PROB30 
      TEMPO 2305/2306 SCT010
      
TAF EGQS 221921Z 2221/2315 27008KT 9999 FEW045 PROB40 
      TEMPO 2222/2309 7000 RA BKN018 PROB30 
      TEMPO 2302/2309 4000 -RADZ SCT014 BKN018 
      TEMPO 2309/2315 SCT022 PROB30 
      TEMPO 2309/2312 -RA SCT014
      
TAF 0000008100 794 NCNC01 EGRR 220900 03823 00069 555 00150 10100 20000 40161 50147
      
TAF EGSC 221356Z 2215/2219 04012KT 9999 FEW030 SCT040
      
TAF EGSH 221955Z 2221/2306 VRB03KT 9999 FEW040
      
TAF EGSS 221702Z 2218/2324 01008KT 9999 FEW040 PROB40 2315/2318 12010KT
      
TAF EGSY 221103Z 2212/2216 05012KT 9999 FEW035 PROB30 2214/2216 29007KT
      
TAF EGTC 221356Z 2215/2218 02011KT 9999 FEW025 SCT045
      
TAF EGTE 222201Z 2222/2304 32003KT 9999 FEW030
      
TAF AMD EGTK 221940Z 2219/2221 05005KT 9999 FEW045
      
TAF EGUB 221937Z 2221/2302 02006KT CAVOK
      
TAF AMD EGUL 221700Z 2217/2318 03012G18KT 9999 SCT020 BKN030 QNH3015INS 
      BECMG 2222/2223 35009KT 9999 SCT020 QNH3023INS 
      BECMG 2300/2301 35006KT 8000 BR SCT020 QNH3023INS 
      TEMPO 2302/2306 5000 BR 
      BECMG 2306/2307 02009KT 9999 NSW BKN025 QNH3023INS 
      BECMG 2312/2313 02009KT 9999 SCT040 QNH3021INS TX19/2317Z TN04/2303Z LAST NO 
      AMDS AFT 2217 NEXT 2304
      
TAF EGUN 222000Z 2220/2402 01012KT 9999 SCT030 BKN050 QNH3014INS 
      BECMG 2223/2224 34005KT 9000 BR SCT025 QNH3017INS 
      BECMG 2301/2302 32005KT 6000 BR FEW025 QNH3020INS 
      TEMPO 2302/2306 4000 BR 
      BECMG 2306/2307 03012KT 9999 NSW FEW035 QNH3011INS 
      BECMG 2316/2317 11005KT 9999 FEW030 QNH3014INS 
      BECMG 2322/2323 17005KT 9000 BR FEW250 QNH3017INS 
      BECMG 2400/2401 20005KT 5000 BR FEW250 QNH3020INS TX19/2314Z TN05/2303Z
      
TAF EGUW 221955Z 2221/2301 01008KT 9999 BKN045= TAF EPMB 222000Z 2221/2306 32006KT 9999 BKN040 
      TEMPO 2221/2224 5000 SHRA SCT030CB
      
TAF AMD EGVA 221538Z 2215/2320 04010G15KT 9999 BKN045 QNH3012INS 
      BECMG 2221/2222 36006KT 9999 FEW030 QNH3018INS 
      BECMG 2302/2303 VRB03KT 5000 BR SKC QNH3020INS 
      BECMG 2306/2307 36006KT 9999 NSW FEW030 QNH3022INS TX16/2215Z TN06/2303Z LAST NO 
      AMDS AFT 2215 NEXT 2306
      
TAF EGVN 221929Z 2221/2321 03007KT 9999 SCT045 PROB30 2304/2306 7000 HZ
      
TAF EGVO 221928Z 2221/2309 01012KT 9999 SCT040
      
TAF EGVP 221345Z 2215/2219 03012KT 9999 SCT035
      
TAF EGWU 221940Z 2221/2315 04008KT 9999 FEW048= TAF 
      TAF AMD ELLX 221900Z 2219/2324 04008KT 9999 BKN007 PROB30 
      TEMPO 2219/2306 SCT007 
      BECMG 2307/2310 BKN015 PROB40 
      TEMPO 2313/2319 3000 TSRA SHRA BKN020CB
      
TAF EGXC 221922Z 2221/2315 35006KT 9999 FEW040 PROB30 
      TEMPO 2302/2305 6000 BR
      
TAF EGXE 221343Z 2215/2218 05008KT CAVOK
      
TAF EGXP 221148Z 2212/2218 CNL
      
TAF EGXT 221355Z 2215/2218 04013KT 9999 BKN045
      
TAF EGXW 221930Z 2221/2315 36007KT 9999 FEW040
      
TAF EGYD 221352Z 2215/2218 02012KT 9999 SCT040
      
TAF AMD EGYM 221624Z 2215/2218 CNL
      
TAF EGYP 221930Z 2221/2315 25015G25KT 9999 FEW012 BKN025 
      BECMG 2221/2223 29010KT 
      TEMPO 2221/2222 BKN012 PROB30 
      TEMPO 2222/2312 SCT018 
      TEMPO 2312/2315 BKN015 PROB30 
      TEMPO 2312/2315 7000 -RADZ BKN007
      

About You

Log In Register UKGA membership

Airfields

Interactive airfield map Search by name Search by postcode Search by location Fuel prices Pilot reviews Latest
(No favourites selected)

Flight planning

Flight planning New flightplan NOTAM map LARS map & NOTAMs Danger area, mil. & TRA activations Weather map GPS route download Find waypoints Your waypoints New waypoint

Forums

Forums Currently discussing "GP LAPL medical via CAA/Cellma"

Other items

Articles Events Links News Surveys Tips Other users Feedback UKGA membership About UKGA